skip to main content

Salvage Dealers List

Click on any column heading to sort by that column or use the search field below to enter search terms.

Click on a Business Name for more detailed information about that dealer.

Business NamePhonePhysical AddressCityZipDealerIDLicense NumberExpires
ADRIANA AUTO SALES(956) 739-19112213 SALTILLO STHIDALGO78557524631086524632015-08-07 00:00:00
ADRYS AUTO SALES(956) 227-29715606 S RAUL LONGORIA #BEDINBURG78542516531082516532015-04-03 00:00:00
ADVANCE AUTO SALES(832) 868-18307801 MANCHESTER STHOUSTON77012506271012506272015-10-17 00:00:00
ADVANCE AUTO SALES(832) 868-18307801 MANCHESTER STHOUSTON77012506271016506272015-10-17 00:00:00
ADVANCE AUTOS(806) 291-87871505 N COLUMBIAPLAINVIEW79072436600952436602015-12-03 00:00:00
ADVANCED AUTO SALES(254) 965-73414834 S US HWY 281STEPHENVILLE76401553820726553822015-10-30 00:00:00
ADVANTAGE(832) 330-62991308 NORWOOD STDEER PARK77536499061012499062015-06-22 00:00:00
ADVANTAGE AUTO GLASS(903) 243-07773508 HWY 154 SOUTHSULPHUR SPRINGS75482549721126549722015-09-19 00:00:00
ADVANTAGE AUTO REMARKETING(972) 996-5524811 BETTERTON CIRCLEDALLAS75203547630572547632015-07-24 00:00:00
ADVANTAGE AUTO SALES(817) 536-00403309 MANSFIELD HWYFORT WORTH761196832202006832015-10-30 00:00:00
ADVANTAGE AUTO SALES(817) 536-00403309 MANSFIELD HWYFORT WORTH761196832206006832015-04-22 00:00:00
ADVANTAGE AUTO SALES OF WICHITA FALLS(940) 689-00012452 ARENA RD.WITCHITA FALLS76310483972435483972015-11-21 00:00:00
ADVANTAGE AUTOMOBILE BODY PARTS INC(817) 808-75402909 VAUGHN BLVDFT WORTH7610570572206070572015-10-31 00:00:00
ADVANTAGE HOUSTON MOTORS LLC(281) 250-508612822 MCNAIR STHOUSTON77015416631012416632015-03-04 00:00:00
ADVANTAGE HOUSTON MOTORS LLC(281) 250-508612822 MCNAIR STHOUSTON77015416631016416632015-03-04 00:00:00
ADVANTAGE MOTORS(214) 551-5269615 E HOUSTONSHERMAN75090510190912510192015-01-02 00:00:00
ADVANTAGE MOTORS(214) 551-5269615 E HOUSTONSHERMAN75090510190916510192015-01-02 00:00:00
ADVANTAGE SALVAGE AND AUTO PARTS LLC(361) 289-50005330 AGNES STCORPUS CHRISTI78405331731782331732015-09-17 00:00:00
ADVENTURE AUTO(936) 634-17001709 WEST FRANK AVELUFKIN75904411130032411132015-10-03 00:00:00
ADVENTURE AUTO(936) 634-17001709 WEST FRANK AVELUFKIN75904411130036411132015-08-22 00:00:00
ADWAJ IMPORT EXPORT(832) 620-63388700 COMMERCE PARK DR #228CHOUSTON77036418601012418602015-06-06 00:00:00
ADWAJ IMPORT EXPORT(832) 620-63388700 COMMERCE PARK DR #228CHOUSTON77036418601016418602015-03-04 00:00:00
AEROBILT MANUFACTURING COMPANY(972) 997-5733834 HERITAGE PARKWAY SALLEN75002541620436541622015-05-09 00:00:00
AEROMARINE ENTERPRISE(832) 279-14216826 CADDO LAKE LANEHOUSTON77083358351016358352015-02-01 00:00:00
AEROPLACE SERVICES INCORPORATED(469) 964-187515 FIELDER RDDENISON75020526470912526472015-09-04 00:00:00
AF1 RACING INC(512) 627-0278699 W SAN ANTONIONEW BRAUNFELS78130506910461506912015-10-30 00:00:00
AF1 RACING INC(830) 626-3966699 W SAN ANTONIONEW BRAUNFELS78130506910461506912015-10-30 00:00:00
AFFORDABLE AUTO ENTERPRISES(281) 651-652219224 KUYKENDAHLSPRING77379417381014417382015-03-09 00:00:00
AFFORDABLE AUTO PLUS(956) 874-86174801 AZTECA ST.SAN JUAN78589547741082547742015-07-29 00:00:00
AFFORDABLE AUTO PLUS(956) 874-86174801 AZTECA ST.SAN JUAN78589547741086547742015-07-29 00:00:00
AFFORDABLE AUTO REPAIR(940) 458-198711721 MARION RDSANGER76266479290616479292015-09-19 00:00:00
AFFORDABLE AUTO SALES(832) 407-64312622 MUEGGE RDROSENBERG77471397060795397062015-03-21 00:00:00
AFFORDABLE AUTOMOBILES(210) 409-74506725 W. US HIGHWAY 90SAN ANTONIO78227548450156548452015-08-27 00:00:00
AFFORDABLE AUTOS(281) 615-501724803 BAYWICK DRIVESPRING77389544171012544172015-06-06 00:00:00
AFFORDABLE AUTOS(281) 615-501724803 BAYWICK DRIVESPRING77389544171016544172015-06-06 00:00:00
AFFORDABLE CARS AND SERVICES(832) 630-25705710 JAMES PLACEHOUSTON77085534221012534222015-01-17 00:00:00
AFFORDABLE SALES(281) 987-03005204 NORTHINGTONHOUSTON77039308371016308372015-07-01 00:00:00
AFFORDABLE USED CARS(409) 347-12173730 EAST LUCASBEAUMONT77708438661236438662015-02-02 00:00:00
AFFORDABLES PLUS AUTO SALES(832) 267-34501310 HANCOCKPASADENA77502472390572472392015-05-17 00:00:00
AFFORDABLES PLUS AUTO SALES(832) 267-34501310 HANCOCKPASADENA77502472390576472392015-05-20 00:00:00
AFRICAN GIFT STORE(757) 342-89272801 WALNUT BEND LN #55HOUSTON77042443101012443102015-08-09 00:00:00
AG AUTO SALES(713) 870-0875111 BLUE BELLHOUSTON77037458471012458472015-10-27 00:00:00
AG CARS(281) 435-108210211 ANTELOPE ALLEYMISSOURI CITY77459551150794551152015-09-23 00:00:00
AG MOTORS(713) 884-087217930 SUNSHINE TRACE LANERICHMOND77407480440795480442015-09-20 00:00:00
AG MOTORS(713) 884-087217930 SUNSHINE TRACE LANERICHMOND77407480440796480442015-09-20 00:00:00
AG MOTORS(956) 237-0116201 E GUERRERO STLAREDO78040489392406489392015-02-15 00:00:00
AGAPE LOVE(713) 683-10402008 D WIRT RDHOUSTON77055354811012354812015-03-29 00:00:00
AGOSTUS MOTOR GROUP LLC(832) 230-44547110 ROMONA BLVD STE 2HOUSTON77086552751012552752015-11-03 00:00:00
AGOSTUS MOTOR GROUP LLC(832) 230-44547110 ROMONA BLVD STE 2HOUSTON77086552751016552752015-11-03 00:00:00
AGU MOTORS INTERNATIONAL(972) 748-41607911 HUNNICUT RD #DDALLAS75228515870572515872015-04-11 00:00:00

Copyright © 2014 Texas Department of Motor Vehicles. All rights reserved. - 4000 Jackson Ave, Austin, TX 78731